createdAt,value
2016-06-18T00:00:55.476Z,0
2016-06-18T00:02:02.387Z,0
2016-06-18T00:02:55.545Z,0
2016-06-18T00:03:55.533Z,0
2016-06-18T00:04:55.568Z,0
2016-06-18T00:06:21.056Z,0
2016-06-18T00:07:16.684Z,0
2016-06-18T00:07:55.610Z,0
2016-06-18T00:08:55.019Z,0
2016-06-18T00:09:57.211Z,0
2016-06-18T00:11:02.730Z,0
2016-06-18T00:12:07.811Z,0
2016-06-18T00:13:08.472Z,0
2016-06-18T00:13:55.787Z,0
2016-06-18T00:15:10.525Z,0
2016-06-18T00:15:55.153Z,0
2016-06-18T00:17:08.516Z,0
2016-06-18T00:17:56.410Z,0
2016-06-18T00:18:57.226Z,0
2016-06-18T00:19:55.870Z,0
2016-06-18T00:21:08.624Z,0
2016-06-18T00:21:55.268Z,0
2016-06-18T00:23:21.568Z,0
2016-06-18T00:23:55.916Z,0
2016-06-18T00:25:08.685Z,0
2016-06-18T00:25:58.125Z,0
2016-06-18T00:27:15.223Z,0
2016-06-18T00:28:26.148Z,0
2016-06-18T00:28:58.105Z,0
2016-06-18T00:29:57.623Z,0
2016-06-18T00:31:18.814Z,0
2016-06-18T00:31:58.178Z,0
2016-06-18T00:33:10.899Z,0
2016-06-18T00:33:57.591Z,0
2016-06-18T00:35:16.156Z,0
2016-06-18T00:35:57.613Z,0
2016-06-18T00:37:23.305Z,0
2016-06-18T00:37:59.042Z,0
2016-06-18T00:38:57.654Z,0
2016-06-18T00:40:11.049Z,0
2016-06-18T00:40:58.318Z,0
2016-06-18T00:41:57.728Z,0
2016-06-18T00:42:58.373Z,0
2016-06-18T00:43:57.766Z,0
2016-06-18T00:45:11.144Z,0
2016-06-18T00:45:57.803Z,0
2016-06-18T00:46:57.823Z,0
2016-06-18T00:47:59.076Z,0
2016-06-18T00:49:17.674Z,0
2016-06-18T00:50:11.849Z,0
2016-06-18T00:51:24.211Z,0
2016-06-18T00:51:57.997Z,0
2016-06-18T00:53:30.594Z,0
2016-06-18T00:54:03.644Z,0
2016-06-18T00:55:30.648Z,0
2016-06-18T00:55:57.995Z,0
2016-06-18T00:57:58.658Z,0
2016-06-18T00:58:58.053Z,0
2016-06-18T01:00:01.790Z,0
2016-06-18T01:00:58.169Z,0
2016-06-18T01:01:58.703Z,0
2016-06-18T01:02:58.175Z,0
2016-06-18T01:04:10.913Z,0
2016-06-18T01:05:17.401Z,0
2016-06-18T01:05:58.233Z,0
2016-06-18T01:06:59.455Z,0
2016-06-18T01:08:18.084Z,0
2016-06-18T01:09:12.305Z,0
2016-06-18T01:09:58.340Z,0
2016-06-18T01:11:18.140Z,0
2016-06-18T01:11:58.926Z,0
2016-06-18T01:12:58.351Z,0
2016-06-18T01:14:11.120Z,0
2016-06-18T01:14:59.795Z,0
2016-06-18T01:15:59.017Z,0
2016-06-18T01:16:59.052Z,0
2016-06-18T01:18:01.586Z,0
2016-06-18T01:19:00.481Z,0
2016-06-18T01:19:59.093Z,0
2016-06-18T01:20:59.144Z,0
2016-06-18T01:21:58.663Z,0
2016-06-18T01:23:12.853Z,0
2016-06-18T01:23:59.218Z,0
2016-06-18T01:24:59.204Z,0
2016-06-18T01:26:01.661Z,0
2016-06-18T01:26:58.618Z,0
2016-06-18T01:27:58.653Z,0
2016-06-18T01:28:59.281Z,0
2016-06-18T01:30:05.660Z,0
2016-06-18T01:31:00.773Z,0
2016-06-18T01:31:59.338Z,0
2016-06-18T01:32:59.389Z,0
2016-06-18T01:34:05.111Z,0
2016-06-18T01:34:58.786Z,0
2016-06-18T01:36:12.773Z,0
2016-06-18T01:36:58.887Z,0
2016-06-18T01:37:59.609Z,0
2016-06-18T01:38:58.878Z,0
2016-06-18T01:39:58.929Z,0
2016-06-18T01:40:59.573Z,0
2016-06-18T01:41:58.342Z,0
2016-06-18T01:42:59.564Z,0
2016-06-18T01:44:11.708Z,0
2016-06-18T01:45:00.227Z,0
2016-06-18T01:45:59.622Z,0
2016-06-18T01:47:02.719Z,0
2016-06-18T01:47:59.097Z,0
2016-06-18T01:48:59.085Z,0
2016-06-18T01:49:59.839Z,0
2016-06-18T01:51:00.372Z,0
2016-06-18T01:51:59.798Z,0
2016-06-18T01:53:02.818Z,0
2016-06-18T01:54:02.824Z,0
2016-06-18T01:55:12.548Z,0
2016-06-18T01:55:59.945Z,0
2016-06-18T01:56:59.249Z,0
2016-06-18T01:58:02.928Z,0
2016-06-18T01:59:12.636Z,0
2016-06-18T01:59:59.906Z,0
2016-06-18T02:00:59.317Z,0
2016-06-18T02:01:59.994Z,4
2016-06-18T02:02:59.373Z,4
2016-06-18T02:03:59.377Z,4
2016-06-18T02:05:00.662Z,4
2016-06-18T02:05:58.803Z,4
2016-06-18T02:07:00.076Z,0
2016-06-18T02:08:00.705Z,4
2016-06-18T02:09:00.131Z,4
2016-06-18T02:10:00.947Z,4
2016-06-18T02:11:12.872Z,4
2016-06-18T02:11:58.919Z,4
2016-06-18T02:12:59.599Z,4
2016-06-18T02:14:00.821Z,4
2016-06-18T02:15:00.216Z,8
2016-06-18T02:16:00.328Z,4
2016-06-18T02:17:00.254Z,8
2016-06-18T02:18:00.319Z,8
2016-06-18T02:19:00.307Z,8
2016-06-18T02:20:01.108Z,12
2016-06-18T02:21:02.532Z,12
2016-06-18T02:21:59.751Z,8
2016-06-18T02:23:00.383Z,16
2016-06-18T02:24:00.418Z,16
2016-06-18T02:25:01.062Z,16
2016-06-18T02:25:59.859Z,20
2016-06-18T02:27:00.460Z,20
2016-06-18T02:28:12.010Z,20
2016-06-18T02:28:59.947Z,24
2016-06-18T02:30:00.502Z,28
2016-06-18T02:31:01.317Z,28
2016-06-18T02:32:00.556Z,32
2016-06-18T02:33:31.903Z,40
2016-06-18T02:34:07.484Z,40
2016-06-18T02:35:00.628Z,44
2016-06-18T02:36:00.695Z,48
2016-06-18T02:37:00.023Z,52
2016-06-18T02:38:18.638Z,60
2016-06-18T02:39:01.377Z,64
2016-06-18T02:40:00.174Z,72
2016-06-18T02:41:00.099Z,72
2016-06-18T02:42:00.762Z,84
2016-06-18T02:43:00.152Z,88
2016-06-18T02:44:01.581Z,100
2016-06-18T02:45:00.269Z,108
2016-06-18T02:46:00.868Z,120
2016-06-18T02:47:00.857Z,132
2016-06-18T02:48:00.294Z,144
2016-06-18T02:49:00.927Z,152
2016-06-18T02:49:59.709Z,164
2016-06-18T02:51:00.336Z,180
2016-06-18T02:52:00.937Z,192
2016-06-18T02:53:02.393Z,208
2016-06-18T02:54:13.725Z,220
2016-06-18T02:55:00.381Z,240
2016-06-18T02:56:27.325Z,264
2016-06-18T02:57:13.173Z,280
2016-06-18T02:58:00.423Z,296
2016-06-18T02:59:00.505Z,312
2016-06-18T03:00:01.133Z,332
2016-06-18T03:01:01.105Z,356
2016-06-18T03:02:01.784Z,376
2016-06-18T03:03:13.272Z,404
2016-06-18T03:04:32.541Z,432
2016-06-18T03:05:00.572Z,452
2016-06-18T03:06:01.216Z,484
2016-06-18T03:07:01.235Z,512
2016-06-18T03:08:01.255Z,544
2016-06-18T03:09:13.448Z,588
2016-06-18T03:10:01.308Z,616
2016-06-18T03:11:19.893Z,668
2016-06-18T03:12:01.975Z,700
2016-06-18T03:13:27.134Z,764
2016-06-18T03:14:13.497Z,804
2016-06-18T03:15:33.438Z,880
2016-06-18T03:16:19.989Z,928
2016-06-18T03:17:00.208Z,972
2016-06-18T03:18:01.476Z,1044
2016-06-18T03:19:02.108Z,1128
2016-06-18T03:20:01.499Z,1196
2016-06-18T03:21:00.893Z,1232
2016-06-18T03:22:03.541Z,1276
2016-06-18T03:23:00.916Z,1328
2016-06-18T03:24:07.235Z,1380
2016-06-18T03:25:01.579Z,1440
2016-06-18T03:26:01.629Z,1488
2016-06-18T03:27:01.023Z,1520
2016-06-18T03:28:01.042Z,1600
2016-06-18T03:29:01.718Z,1680
2016-06-18T03:30:08.600Z,1724
2016-06-18T03:31:00.600Z,1788
2016-06-18T03:32:04.856Z,1900
2016-06-18T03:33:20.344Z,1980
2016-06-18T03:34:02.645Z,2044
2016-06-18T03:35:01.785Z,2120
2016-06-18T03:36:01.196Z,2192
2016-06-18T03:37:07.483Z,2268
2016-06-18T03:38:01.249Z,2332
2016-06-18T03:39:14.599Z,2416
2016-06-18T03:40:16.447Z,2568
2016-06-18T03:41:26.981Z,2776
2016-06-18T03:42:02.544Z,2868
2016-06-18T03:43:02.078Z,2864
2016-06-18T03:44:01.348Z,2592
2016-06-18T03:45:14.120Z,2220
2016-06-18T03:46:03.514Z,1984
2016-06-18T03:47:02.030Z,1804
2016-06-18T03:48:00.815Z,1548
2016-06-18T03:49:02.818Z,1408
2016-06-18T03:50:02.119Z,1356
2016-06-18T03:51:02.778Z,1364
2016-06-18T03:52:02.173Z,1420
2016-06-18T03:53:02.160Z,1440
2016-06-18T03:54:02.961Z,1448
2016-06-18T03:55:21.420Z,1440
2016-06-18T03:56:01.607Z,1540
2016-06-18T03:57:14.974Z,1736
2016-06-18T03:58:01.677Z,1840
2016-06-18T03:59:02.306Z,1908
2016-06-18T04:00:02.356Z,1920
2016-06-18T04:01:01.079Z,1860
2016-06-18T04:02:02.957Z,1744
2016-06-18T04:03:02.523Z,1796
2016-06-18T04:04:02.385Z,2228
2016-06-18T04:05:03.892Z,2532
2016-06-18T04:06:03.111Z,2820
2016-06-18T04:07:03.052Z,3056
2016-06-18T04:08:01.978Z,3308
2016-06-18T04:09:02.763Z,3744
2016-06-18T04:10:14.677Z,4104
2016-06-18T04:11:02.115Z,3844
2016-06-18T04:12:01.968Z,3268
2016-06-18T04:13:02.088Z,2800
2016-06-18T04:14:03.285Z,2652
2016-06-18T04:15:02.699Z,2488
2016-06-18T04:16:02.099Z,2320
2016-06-18T04:17:15.439Z,2356
2016-06-18T04:18:14.897Z,2424
2016-06-18T04:19:02.741Z,2728
2016-06-18T04:20:02.122Z,2984
2016-06-18T04:21:01.580Z,3104
2016-06-18T04:22:02.304Z,3164
2016-06-18T04:23:02.838Z,3352
2016-06-18T04:24:03.469Z,3428
2016-06-18T04:25:02.285Z,3424
2016-06-18T04:26:02.945Z,3448
2016-06-18T04:27:02.902Z,3440
2016-06-18T04:28:02.329Z,3452
2016-06-18T04:29:03.582Z,3572
2016-06-18T04:30:04.414Z,3692
2016-06-18T04:31:03.637Z,3780
2016-06-18T04:32:22.205Z,3728
2016-06-18T04:33:05.069Z,3660
2016-06-18T04:34:05.103Z,3732
2016-06-18T04:35:05.091Z,3912
2016-06-18T04:36:05.736Z,4100
2016-06-18T04:37:05.175Z,4088
2016-06-18T04:38:05.804Z,3912
2016-06-18T04:39:04.633Z,3696
2016-06-18T04:40:17.311Z,3600
2016-06-18T04:41:12.174Z,3604
2016-06-18T04:42:05.897Z,3744
2016-06-18T04:43:06.071Z,3996
2016-06-18T04:44:18.060Z,4320
2016-06-18T04:45:17.548Z,4468
2016-06-18T04:46:05.348Z,4672
2016-06-18T04:47:04.754Z,4860
2016-06-18T04:48:36.808Z,4564
2016-06-18T04:49:19.796Z,4492
2016-06-18T04:50:31.175Z,4744
2016-06-18T04:51:19.084Z,4896
2016-06-18T04:52:19.213Z,5096
2016-06-18T04:53:19.778Z,5364
2016-06-18T04:54:19.859Z,5428
2016-06-18T04:55:20.410Z,5620
2016-06-18T04:56:21.929Z,6252
2016-06-18T04:57:19.855Z,7092
2016-06-18T04:58:39.202Z,7768
2016-06-18T04:59:33.565Z,7848
2016-06-18T05:01:18.602Z,6948
2016-06-18T05:01:48.665Z,6676
2016-06-18T05:02:29.466Z,6492
2016-06-18T05:03:28.876Z,6452
2016-06-18T05:04:30.269Z,6660
2016-06-18T05:05:42.352Z,6844
2016-06-18T05:06:43.105Z,6640
2016-06-18T05:07:47.545Z,6420
2016-06-18T05:08:54.049Z,6744
2016-06-18T05:09:41.881Z,6880
2016-06-18T05:10:48.852Z,7224
2016-06-18T05:11:29.731Z,7424
2016-06-18T05:12:28.454Z,7440
2016-06-18T05:13:42.036Z,7912
2016-06-18T05:15:08.182Z,11080
2016-06-18T05:15:47.761Z,12040
2016-06-18T05:16:48.404Z,13352
2016-06-18T05:17:30.611Z,13948
2016-06-18T05:18:30.443Z,16064
2016-06-18T05:19:30.149Z,17728
2016-06-18T05:20:48.934Z,20768
2016-06-18T05:21:29.282Z,23712
2016-06-18T05:22:49.441Z,21536
2016-06-18T05:23:30.867Z,19328
2016-06-18T05:24:48.683Z,18624
2016-06-18T05:25:29.998Z,18080
2016-06-18T05:26:29.486Z,16992
2016-06-18T05:27:55.521Z,16448
2016-06-18T05:28:30.071Z,15968
2016-06-18T05:30:02.105Z,11556
2016-06-18T05:30:49.344Z,10488
2016-06-18T05:32:01.550Z,8224
2016-06-18T05:32:29.554Z,7488
2016-06-18T05:33:30.214Z,6212
2016-06-18T05:34:30.185Z,5468
2016-06-18T05:35:29.658Z,5012
2016-06-18T05:36:30.490Z,4536
2016-06-18T05:37:29.743Z,4600
2016-06-18T05:38:43.074Z,4820
2016-06-18T05:39:42.515Z,5032
2016-06-18T05:40:29.910Z,5016
2016-06-18T05:41:31.101Z,4656
2016-06-18T05:42:29.808Z,4636
2016-06-18T05:43:31.061Z,4984
2016-06-18T05:44:31.095Z,6544
2016-06-18T05:45:30.536Z,8712
2016-06-18T05:46:30.586Z,9340
2016-06-18T05:47:30.559Z,9128
2016-06-18T05:48:30.593Z,8728
2016-06-18T05:49:30.004Z,8484
2016-06-18T05:50:42.741Z,8280
2016-06-18T05:51:30.636Z,7604
2016-06-18T05:52:30.748Z,7296
2016-06-18T05:53:30.720Z,7800
2016-06-18T05:54:30.099Z,7728
2016-06-18T05:55:30.867Z,7876
2016-06-18T05:56:30.793Z,9524
2016-06-18T05:57:30.907Z,11596
2016-06-18T05:58:31.425Z,12152
2016-06-18T05:59:30.834Z,12516
2016-06-18T06:00:30.870Z,12364
2016-06-18T06:01:31.529Z,10520
2016-06-18T06:02:29.658Z,9172
2016-06-18T06:03:31.020Z,8632
2016-06-18T06:04:30.367Z,8376
2016-06-18T06:05:31.012Z,7988
2016-06-18T06:06:49.641Z,8160
2016-06-18T06:07:31.066Z,8820
2016-06-18T06:08:31.678Z,8680
2016-06-18T06:09:30.479Z,8660
2016-06-18T06:10:31.232Z,8588
2016-06-18T06:11:31.767Z,8720
2016-06-18T06:12:30.536Z,8900
2016-06-18T06:13:31.211Z,9484
2016-06-18T06:14:49.183Z,9472
2016-06-18T06:15:30.843Z,8644
2016-06-18T06:16:30.815Z,8240
2016-06-18T06:17:31.304Z,8944
2016-06-18T06:18:32.088Z,9272
2016-06-18T06:19:30.107Z,9304
2016-06-18T06:20:30.861Z,10280
2016-06-18T06:21:30.832Z,12028
2016-06-18T06:22:31.398Z,14036
2016-06-18T06:23:31.449Z,14456
2016-06-18T06:24:32.108Z,15156
2016-06-18T06:25:30.925Z,14844
2016-06-18T06:26:31.522Z,13968
2016-06-18T06:27:32.151Z,13844
2016-06-18T06:28:32.203Z,14696
2016-06-18T06:29:31.003Z,15968
2016-06-18T06:30:50.352Z,17248
2016-06-18T06:31:32.481Z,18016
2016-06-18T06:32:57.344Z,19840
2016-06-18T06:33:31.707Z,20544
2016-06-18T06:34:50.398Z,22912
2016-06-18T06:35:43.964Z,24512
2016-06-18T06:36:31.797Z,23712
2016-06-18T06:38:16.068Z,22304
2016-06-18T06:39:04.678Z,19232
2016-06-18T06:39:46.135Z,17632
2016-06-18T06:40:45.576Z,17664
2016-06-18T06:41:46.190Z,17408
2016-06-18T06:43:03.551Z,19936
2016-06-18T06:43:45.633Z,23008
2016-06-18T06:44:45.011Z,21696
2016-06-18T06:45:45.656Z,18816
2016-06-18T06:46:45.097Z,17472
2016-06-18T06:48:04.303Z,11712
2016-06-18T06:48:45.744Z,10060
2016-06-18T06:49:45.342Z,8672
2016-06-18T06:50:45.830Z,8068
2016-06-18T06:51:46.036Z,7328
2016-06-18T06:53:17.198Z,6668
2016-06-18T06:53:45.370Z,6468
2016-06-18T06:54:45.999Z,5472
2016-06-18T06:55:45.425Z,5488
